Time;durP1;ratioP1;P1;durP2;ratioP2;P2;SDS_P1;SDS_P2;PMS_P1;PMS_P2;Temp;Humidity;BMP_temperature;BMP_pressure;BME280_temperature;BME280_humidity;BME280_pressure;Samples;Min_cycle;Max_cycle;Signal;HPM_P1;HPM_P2
2022/03/06 00:00:11;;;;;;;10.75;4.53;;;-4.20;99.90;;;;;;4958282;28;20069;-77
2022/03/06 00:02:37;;;;;;;14.52;4.90;;;-4.40;99.90;;;;;;4962537;28;20141;-77
2022/03/06 00:05:04;;;;;;;10.10;3.60;;;-3.50;99.90;;;;;;4959083;28;20191;-77
2022/03/06 00:07:30;;;;;;;15.90;5.95;;;-4.30;99.90;;;;;;4962781;28;20491;-78
2022/03/06 00:09:55;;;;;;;9.45;4.88;;;-3.90;99.90;;;;;;4964207;28;20022;-77
2022/03/06 00:12:21;;;;;;;11.57;5.75;;;-3.70;99.90;;;;;;4968658;28;20031;-78
2022/03/06 00:14:47;;;;;;;10.73;4.90;;;-3.70;99.90;;;;;;4969072;28;20030;-78
2022/03/06 00:17:12;;;;;;;10.85;4.60;;;-4.70;99.90;;;;;;4970118;28;20059;-78
2022/03/06 00:19:38;;;;;;;9.93;4.45;;;-4.80;99.90;;;;;;4970459;28;20023;-78
2022/03/06 00:22:04;;;;;;;11.52;4.60;;;-4.80;99.90;;;;;;4970510;28;20402;-78
2022/03/06 00:24:30;;;;;;;16.33;5.82;;;-3.20;99.90;;;;;;4970280;28;20023;-78
2022/03/06 00:26:55;;;;;;;11.85;4.95;;;-4.80;99.90;;;;;;4970164;28;20379;-78
2022/03/06 00:29:21;;;;;;;12.35;4.95;;;-4.90;99.90;;;;;;4971255;28;20027;-78
2022/03/06 00:31:47;;;;;;;10.38;4.75;;;-5.10;99.90;;;;;;4971582;28;20041;-78
2022/03/06 00:34:12;;;;;;;12.40;5.25;;;-5.00;99.90;;;;;;4969989;28;20114;-78
2022/03/06 00:36:38;;;;;;;8.40;4.15;;;-5.10;99.90;;;;;;4969965;28;20030;-78
2022/03/06 00:39:04;;;;;;;14.15;5.13;;;-3.10;99.90;;;;;;4971383;28;20023;-77
2022/03/06 00:41:30;;;;;;;15.25;5.18;;;-5.20;99.90;;;;;;4970025;28;20155;-78
2022/03/06 00:43:56;;;;;;;9.32;4.18;;;-4.10;99.90;;;;;;4969703;28;20023;-78
2022/03/06 00:46:22;;;;;;;10.40;4.60;;;-3.50;99.90;;;;;;4969690;28;20030;-78
2022/03/06 00:48:48;;;;;;;11.63;4.53;;;-5.20;99.90;;;;;;4971066;28;20109;-78
2022/03/06 00:51:14;;;;;;;10.55;4.10;;;-5.20;99.90;;;;;;4969712;28;20430;-78
2022/03/06 00:53:41;;;;;;;9.20;3.95;;;-5.20;99.90;;;;;;4969997;28;20422;-78
2022/03/06 00:56:07;;;;;;;12.23;5.03;;;-5.10;99.90;;;;;;4969878;28;20050;-77
2022/03/06 00:58:33;;;;;;;9.88;4.75;;;-5.20;99.90;;;;;;4970583;28;20494;-78
2022/03/06 01:00:59;;;;;;;10.73;5.20;;;-5.00;99.90;;;;;;4971085;28;20043;-78
2022/03/06 01:03:26;;;;;;;11.75;4.25;;;-4.90;99.90;;;;;;4970748;28;20093;-78
2022/03/06 01:05:52;;;;;;;10.18;4.53;;;-4.90;99.90;;;;;;4970767;28;20106;-78
2022/03/06 01:08:18;;;;;;;9.52;4.63;;;-3.70;99.90;;;;;;4969427;28;20110;-78
2022/03/06 01:10:45;;;;;;;12.10;5.57;;;-3.70;99.90;;;;;;4969276;28;20031;-78
2022/03/06 01:13:12;;;;;;;15.27;5.22;;;-4.30;99.90;;;;;;4969383;28;20034;-78
2022/03/06 01:15:38;;;;;;;16.05;4.80;;;-4.20;99.90;;;;;;4970947;28;20023;-78
2022/03/06 01:18:06;;;;;;;9.50;4.43;;;-3.90;99.90;;;;;;4969527;28;20093;-78
2022/03/06 01:20:33;;;;;;;13.73;4.88;;;-3.80;99.90;;;;;;4969302;28;20039;-78
2022/03/06 01:22:58;;;;;;;13.52;5.70;;;-5.10;99.90;;;;;;4970412;28;20038;-78
2022/03/06 01:25:24;;;;;;;14.90;6.30;;;-5.00;99.90;;;;;;4969120;28;20488;-79
2022/03/06 01:27:50;;;;;;;15.18;5.50;;;-3.60;99.90;;;;;;4968952;28;20130;-78
2022/03/06 01:30:17;;;;;;;14.57;4.35;;;-2.80;99.90;;;;;;4969002;28;20035;-77
2022/03/06 01:32:43;;;;;;;11.88;4.80;;;-3.70;99.90;;;;;;4969430;28;20023;-77
2022/03/06 01:35:09;;;;;;;10.50;4.75;;;-5.20;99.90;;;;;;4969171;28;20031;-78
2022/03/06 01:37:35;;;;;;;14.30;6.05;;;-5.20;99.90;;;;;;4970918;28;20189;-78
2022/03/06 01:40:01;;;;;;;14.77;5.88;;;-3.50;99.90;;;;;;4970766;28;20606;-77
2022/03/06 01:42:27;;;;;;;15.95;6.43;;;-3.90;99.90;;;;;;4970321;28;20033;-78
2022/03/06 01:44:53;;;;;;;11.63;5.20;;;-2.90;99.90;;;;;;4969079;28;20023;-80
2022/03/06 01:47:34;;;;;;;10.93;5.40;;;-3.60;99.90;;;;;;4969171;28;20113;-78
2022/03/06 01:50:01;;;;;;;12.25;5.13;;;-4.70;99.90;;;;;;4969325;28;20027;-77
2022/03/06 01:52:27;;;;;;;14.93;4.90;;;-3.50;99.90;;;;;;4969083;28;20116;-78
2022/03/06 01:54:53;;;;;;;12.10;4.90;;;-2.90;99.90;;;;;;4969235;28;20102;-78
2022/03/06 01:57:18;;;;;;;15.70;5.43;;;-2.60;99.90;;;;;;4971493;28;20384;-78
2022/03/06 01:59:44;;;;;;;10.43;4.15;;;-4.60;99.90;;;;;;4973037;28;20031;-78
2022/03/06 02:02:10;;;;;;;14.32;4.63;;;-4.40;99.90;;;;;;4974008;28;20507;-78
2022/03/06 02:04:35;;;;;;;11.07;5.93;;;-3.90;99.90;;;;;;4972650;28;20031;-77
2022/03/06 02:07:01;;;;;;;9.73;4.40;;;-3.30;99.90;;;;;;4972698;28;20114;-78
2022/03/06 02:09:28;;;;;;;13.68;5.30;;;-4.90;99.90;;;;;;4972594;28;20034;-78
2022/03/06 02:14:38;;;;;;;12.65;4.47;;;-3.80;99.90;;;;;;4974261;28;20392;-78
2022/03/06 02:17:04;;;;;;;13.45;4.88;;;-4.10;99.90;;;;;;4972378;28;20047;-78
2022/03/06 02:19:30;;;;;;;12.60;5.18;;;-2.70;99.90;;;;;;4973571;28;20030;-77
2022/03/06 02:21:56;;;;;;;14.57;6.15;;;-4.00;99.90;;;;;;4973713;28;20109;-78
2022/03/06 02:24:21;;;;;;;12.30;5.32;;;-3.30;99.90;;;;;;4973672;28;20466;-78
2022/03/06 02:26:47;;;;;;;10.18;4.82;;;-5.20;99.90;;;;;;4973854;28;20054;-78
2022/03/06 02:29:13;;;;;;;12.20;4.90;;;-5.20;99.90;;;;;;4972094;28;20031;-78
2022/03/06 02:31:39;;;;;;;14.52;4.70;;;-5.20;99.90;;;;;;4971956;28;20091;-78
2022/03/06 02:34:05;;;;;;;10.95;4.78;;;-5.20;99.90;;;;;;4973717;28;20030;-77
2022/03/06 02:36:31;;;;;;;11.93;4.45;;;-3.50;99.90;;;;;;4972326;28;20498;-77
2022/03/06 02:38:57;;;;;;;15.75;4.80;;;-3.30;99.90;;;;;;4972217;28;20031;-78
2022/03/06 02:41:22;;;;;;;11.48;4.32;;;-5.20;99.90;;;;;;4973651;28;20041;-78
2022/03/06 02:43:48;;;;;;;9.68;4.63;;;-5.30;99.90;;;;;;4971699;28;20073;-78
2022/03/06 02:46:14;;;;;;;13.48;4.78;;;-5.40;99.90;;;;;;4973266;28;20261;-78
2022/03/06 02:48:39;;;;;;;13.15;5.03;;;-5.50;99.90;;;;;;4972052;28;20031;-78
2022/03/06 02:51:06;;;;;;;12.93;4.70;;;-3.50;99.90;;;;;;4971640;28;20066;-77
2022/03/06 02:53:31;;;;;;;15.75;5.25;;;-5.40;99.90;;;;;;4973249;28;20094;-78
2022/03/06 02:55:58;;;;;;;13.52;5.78;;;-3.70;99.90;;;;;;4971666;28;20467;-78
2022/03/06 02:58:24;;;;;;;12.13;5.50;;;-5.40;99.90;;;;;;4972917;28;20019;-78
2022/03/06 03:00:50;;;;;;;11.43;4.97;;;-5.50;99.90;;;;;;4972048;28;20498;-78
2022/03/06 03:03:16;;;;;;;15.10;4.72;;;-4.80;99.90;;;;;;4971677;28;20035;-79
2022/03/06 03:05:42;;;;;;;15.85;5.25;;;-4.60;99.90;;;;;;4971898;28;20070;-78
2022/03/06 03:08:07;;;;;;;15.15;5.03;;;-5.80;99.90;;;;;;4972290;28;20054;-78
2022/03/06 03:10:34;;;;;;;17.38;6.00;;;-5.90;99.90;;;;;;4970835;28;20061;-78
2022/03/06 03:12:59;;;;;;;13.57;4.82;;;-4.60;99.90;;;;;;4971153;28;20039;-78
2022/03/06 03:15:25;;;;;;;13.00;5.63;;;-5.70;99.90;;;;;;4972811;28;20105;-78
2022/03/06 03:17:51;;;;;;;11.80;4.57;;;-3.60;99.90;;;;;;4971555;28;20582;-78
2022/03/06 03:20:17;;;;;;;12.07;4.28;;;-5.90;99.90;;;;;;4972759;28;20023;-78
2022/03/06 03:22:43;;;;;;;12.88;4.70;;;-5.80;99.90;;;;;;4971436;28;20030;-77
2022/03/06 03:25:10;;;;;;;14.00;5.45;;;-4.00;99.90;;;;;;4972843;28;20019;-78
2022/03/06 03:27:35;;;;;;;12.48;4.75;;;-5.20;99.90;;;;;;4971156;28;20072;-77
2022/03/06 03:30:03;;;;;;;10.50;5.00;;;-3.80;99.90;;;;;;4971192;28;20031;-77
2022/03/06 03:32:28;;;;;;;12.73;5.18;;;-5.30;99.90;;;;;;4972408;28;20050;-78
2022/03/06 03:34:54;;;;;;;16.38;5.30;;;-5.60;99.90;;;;;;4972502;28;20030;-78
2022/03/06 03:37:20;;;;;;;11.15;4.88;;;-5.60;99.90;;;;;;4971257;28;20037;-78
2022/03/06 03:39:46;;;;;;;17.15;5.82;;;-5.70;99.90;;;;;;4972430;28;20379;-77
2022/03/06 03:42:11;;;;;;;14.05;4.43;;;-3.50;99.90;;;;;;4972120;28;20403;-78
2022/03/06 03:44:37;;;;;;;13.35;5.13;;;-5.60;99.90;;;;;;4970848;28;20494;-77
2022/03/06 03:47:03;;;;;;;14.00;5.30;;;-3.60;99.90;;;;;;4971066;28;20480;-77
2022/03/06 03:49:29;;;;;;;9.48;4.00;;;-5.90;99.90;;;;;;4970813;28;20027;-77
2022/03/06 03:51:54;;;;;;;11.85;5.57;;;-4.40;99.90;;;;;;4970790;28;20074;-77
2022/03/06 03:54:20;;;;;;;13.38;4.40;;;-3.50;99.90;;;;;;4970855;28;20394;-78
2022/03/06 03:56:46;;;;;;;15.63;5.10;;;-4.80;99.90;;;;;;4972085;28;20030;-77
2022/03/06 03:59:11;;;;;;;12.55;5.32;;;-4.20;99.90;;;;;;4970713;28;20238;-78
2022/03/06 04:01:37;;;;;;;16.35;5.57;;;-3.70;99.90;;;;;;4972021;28;20031;-77
2022/03/06 04:04:04;;;;;;;11.63;4.05;;;-3.40;99.90;;;;;;4970813;28;20109;-77
2022/03/06 04:06:29;;;;;;;13.80;4.90;;;-5.90;99.90;;;;;;4970525;28;20031;-77
2022/03/06 04:08:55;;;;;;;13.07;4.25;;;-6.00;99.90;;;;;;4970518;28;20029;-77
2022/03/06 04:11:21;;;;;;;12.23;4.70;;;-5.90;99.90;;;;;;4971562;28;20027;-78
2022/03/06 04:13:46;;;;;;;15.38;4.80;;;-5.30;99.90;;;;;;4971479;28;20027;-78
2022/03/06 04:16:12;;;;;;;10.10;4.60;;;-5.10;99.90;;;;;;4970233;28;20047;-78
2022/03/06 04:18:38;;;;;;;18.85;4.97;;;-6.30;99.90;;;;;;4970404;28;20478;-78
2022/03/06 04:21:04;;;;;;;11.05;4.43;;;-6.40;99.90;;;;;;4971434;28;20066;-78
2022/03/06 04:23:29;;;;;;;9.52;4.55;;;-4.30;99.90;;;;;;4971674;28;20027;-78
2022/03/06 04:25:55;;;;;;;12.88;4.57;;;-6.50;99.90;;;;;;4970273;28;20027;-77
2022/03/06 04:28:21;;;;;;;11.75;4.25;;;-6.60;99.90;;;;;;4971161;28;20027;-78
2022/03/06 04:30:46;;;;;;;9.00;3.63;;;-4.40;99.90;;;;;;4970217;28;20031;-77
2022/03/06 04:33:12;;;;;;;15.68;5.00;;;-6.70;99.90;;;;;;4969959;28;20029;-78
2022/03/06 04:35:38;;;;;;;10.23;4.65;;;-6.80;99.90;;;;;;4970119;28;20110;-78
2022/03/06 04:38:03;;;;;;;11.80;5.22;;;-6.70;99.90;;;;;;4970049;28;20018;-78
2022/03/06 04:40:29;;;;;;;12.90;4.43;;;-6.70;99.90;;;;;;4970032;28;20021;-78
2022/03/06 04:42:55;;;;;;;10.98;4.47;;;-6.70;99.90;;;;;;4969914;28;20459;-78
2022/03/06 04:45:20;;;;;;;9.65;4.40;;;-6.70;99.90;;;;;;4971469;28;20046;-77
2022/03/06 04:47:46;;;;;;;13.95;4.65;;;-4.90;99.90;;;;;;4969850;28;20117;-78
2022/03/06 04:50:12;;;;;;;12.60;5.15;;;-4.20;99.90;;;;;;4969773;28;20049;-79
2022/03/06 04:52:38;;;;;;;12.23;4.85;;;-6.70;99.90;;;;;;4969873;28;20023;-78
2022/03/06 04:55:04;;;;;;;13.43;4.72;;;-4.40;99.90;;;;;;4971209;28;20521;-78
2022/03/06 04:57:29;;;;;;;15.13;4.45;;;-6.90;99.90;;;;;;4969333;28;20454;-78
2022/03/06 04:59:55;;;;;;;14.80;4.68;;;-7.00;99.90;;;;;;4969465;28;20384;-78
2022/03/06 05:02:21;;;;;;;16.33;4.75;;;-6.90;99.90;;;;;;4969692;28;20023;-77
2022/03/06 05:04:46;;;;;;;16.17;5.03;;;-6.70;99.90;;;;;;4969853;28;20038;-78
2022/03/06 05:07:12;;;;;;;12.30;4.78;;;-6.50;99.90;;;;;;4969557;28;20387;-77
2022/03/06 05:09:38;;;;;;;8.45;3.70;;;-4.90;99.90;;;;;;4971013;28;20031;-77
2022/03/06 05:12:04;;;;;;;16.38;4.28;;;-5.10;99.90;;;;;;4970859;28;20038;-76
2022/03/06 05:14:30;;;;;;;13.27;4.97;;;-6.70;99.90;;;;;;4969767;28;20486;-77
2022/03/06 05:16:55;;;;;;;13.00;5.00;;;-6.60;99.90;;;;;;4969835;28;20050;-77
2022/03/06 05:19:21;;;;;;;14.15;6.00;;;-6.60;99.90;;;;;;4971130;28;20023;-78
2022/03/06 05:21:47;;;;;;;11.70;4.45;;;-6.70;99.90;;;;;;4969958;28;20577;-77
2022/03/06 05:24:12;;;;;;;10.75;4.07;;;-5.60;99.90;;;;;;4971115;28;20030;-77
2022/03/06 05:26:38;;;;;;;9.98;5.13;;;-6.90;99.90;;;;;;4971018;28;20499;-77
2022/03/06 05:29:04;;;;;;;11.68;4.55;;;-5.80;99.90;;;;;;4971244;28;20447;-77
2022/03/06 05:31:29;;;;;;;10.40;4.50;;;-6.70;99.90;;;;;;4969574;28;20054;-77
2022/03/06 05:33:55;;;;;;;15.15;5.07;;;-6.70;99.90;;;;;;4975199;28;20062;-77
2022/03/06 05:36:22;;;;;;;12.25;4.65;;;-6.80;99.90;;;;;;4975182;28;20102;-77
2022/03/06 05:38:48;;;;;;;15.02;5.60;;;-6.90;99.90;;;;;;4973870;28;20394;-76
2022/03/06 05:41:14;;;;;;;12.88;4.70;;;-6.90;99.90;;;;;;4974975;28;20111;-78
2022/03/06 05:43:39;;;;;;;14.75;4.38;;;-6.60;99.90;;;;;;4974846;28;20026;-77
2022/03/06 05:46:05;;;;;;;15.70;4.72;;;-6.50;99.90;;;;;;4975006;28;20037;-77
2022/03/06 05:48:31;;;;;;;13.55;4.40;;;-6.60;99.90;;;;;;4974862;28;20045;-77
2022/03/06 05:50:57;;;;;;;8.98;4.40;;;-6.70;99.90;;;;;;4974881;28;20081;-77
2022/03/06 05:53:22;;;;;;;10.95;4.53;;;-6.90;99.90;;;;;;4973574;28;20031;-77
2022/03/06 05:55:48;;;;;;;13.23;5.00;;;-4.90;99.90;;;;;;4974908;28;20050;-78
2022/03/06 05:58:14;;;;;;;16.17;5.35;;;-6.70;99.90;;;;;;4973116;28;20396;-78
2022/03/06 06:00:39;;;;;;;9.45;5.50;;;-6.50;99.90;;;;;;4973524;28;20388;-77
2022/03/06 06:03:05;;;;;;;16.05;5.38;;;-6.40;99.90;;;;;;4974700;28;20027;-77
2022/03/06 06:05:31;;;;;;;14.43;4.35;;;-4.30;99.90;;;;;;4974517;28;20488;-77
2022/03/06 06:07:56;;;;;;;10.75;4.07;;;-6.60;99.90;;;;;;4970623;28;20031;-77
2022/03/06 06:10:22;;;;;;;13.93;4.65;;;-6.60;99.90;;;;;;4977468;28;20030;-75
2022/03/06 06:12:48;;;;;;;10.45;4.25;;;-6.50;99.90;;;;;;4973715;28;20093;-76
2022/03/06 06:15:14;;;;;;;9.95;5.10;;;-6.40;99.90;;;;;;4970049;28;20023;-75
2022/03/06 06:17:40;;;;;;;13.77;5.22;;;-6.20;99.90;;;;;;4971298;28;20065;-75
2022/03/06 06:20:07;;;;;;;11.10;4.88;;;-5.40;99.90;;;;;;4969672;28;20023;-76
2022/03/06 06:22:34;;;;;;;10.00;4.60;;;-6.20;99.90;;;;;;4969872;28;20039;-75
2022/03/06 06:25:00;;;;;;;14.80;4.40;;;-6.30;99.90;;;;;;4971524;28;20030;-76
2022/03/06 06:27:27;;;;;;;9.50;3.85;;;-6.50;99.90;;;;;;4971170;28;20062;-73
2022/03/06 06:29:53;;;;;;;10.07;4.82;;;-6.60;99.90;;;;;;4971228;28;20034;-76
2022/03/06 06:32:19;;;;;;;14.63;4.95;;;-6.50;99.90;;;;;;4969494;28;20043;-76
2022/03/06 06:34:45;;;;;;;9.02;4.53;;;-6.50;99.90;;;;;;4970867;28;20104;-76
2022/03/06 06:37:11;;;;;;;8.93;3.40;;;-6.60;99.90;;;;;;4970882;28;20554;-74
2022/03/06 06:39:37;;;;;;;11.57;4.43;;;-6.60;99.90;;;;;;4971198;28;20078;-74
2022/03/06 06:42:03;;;;;;;12.10;5.13;;;-6.00;99.90;;;;;;4970747;28;20034;-75
2022/03/06 06:44:29;;;;;;;9.77;3.97;;;-6.60;99.90;;;;;;4970194;28;20023;-76
2022/03/06 06:46:55;;;;;;;11.65;3.72;;;-6.60;99.90;;;;;;4970912;28;20368;-76
2022/03/06 06:49:22;;;;;;;15.10;5.88;;;-6.40;99.90;;;;;;4970101;28;20023;-75
2022/03/06 06:51:48;;;;;;;15.68;5.85;;;-5.90;99.90;;;;;;4969085;28;20043;-76
2022/03/06 06:54:14;;;;;;;13.20;5.40;;;-5.80;99.90;;;;;;4970211;28;20022;-75
2022/03/06 06:56:39;;;;;;;13.60;4.60;;;-5.70;99.90;;;;;;4971818;28;20662;-75
2022/03/06 06:59:05;;;;;;;12.45;4.93;;;-5.60;99.90;;;;;;4970532;28;20030;-77
2022/03/06 07:01:31;;;;;;;47.63;13.65;;;-5.60;99.90;;;;;;4970858;28;20035;-75
2022/03/06 07:03:57;;;;;;;92.00;24.90;;;-5.30;99.90;;;;;;4958128;28;20410;-74
2022/03/06 07:06:23;;;;;;;66.45;23.27;;;-3.80;99.90;;;;;;4950119;28;20438;-76
2022/03/06 07:08:48;;;;;;;48.10;21.45;;;-3.50;99.90;;;;;;4950235;28;20098;-75
2022/03/06 07:11:14;;;;;;;70.70;35.10;;;-2.70;99.90;;;;;;4949895;28;20290;-74
2022/03/06 07:13:40;;;;;;;67.53;32.78;;;-3.20;99.90;;;;;;4950822;28;20019;-75
2022/03/06 07:16:06;;;;;;;50.22;21.98;;;-4.20;99.90;;;;;;4949973;28;20423;-78
2022/03/06 07:18:31;;;;;;;56.97;23.70;;;-3.50;99.90;;;;;;4950146;28;20090;-75
2022/03/06 07:20:57;;;;;;;40.20;16.33;;;-3.30;99.90;;;;;;4950772;28;20038;-74
2022/03/06 07:23:23;;;;;;;26.20;10.85;;;-3.10;99.90;;;;;;4951194;28;20528;-77
2022/03/06 07:25:49;;;;;;;24.05;9.75;;;-3.20;99.90;;;;;;4963237;28;20448;-77
2022/03/06 07:28:14;;;;;;;21.15;8.45;;;-3.10;99.90;;;;;;4970996;28;20033;-76
2022/03/06 07:30:40;;;;;;;21.92;8.80;;;-3.30;99.90;;;;;;4970705;28;20035;-79
2022/03/06 07:33:06;;;;;;;17.13;7.30;;;-2.90;99.90;;;;;;4970804;28;20703;-79
2022/03/06 07:35:32;;;;;;;16.60;7.13;;;-3.40;99.90;;;;;;4969295;28;20069;-78
2022/03/06 07:37:58;;;;;;;19.45;8.00;;;-2.90;99.90;;;;;;4970747;28;20027;-78
2022/03/06 07:40:24;;;;;;;19.15;7.93;;;-2.40;99.90;;;;;;4969084;28;20086;-77
2022/03/06 07:42:50;;;;;;;20.30;9.05;;;-2.90;99.90;;;;;;4970180;28;20126;-78
2022/03/06 07:45:17;;;;;;;16.02;7.18;;;-2.40;99.90;;;;;;4970636;28;20027;-80
2022/03/06 07:47:43;;;;;;;19.73;8.15;;;-2.80;99.90;;;;;;4968757;28;20085;-79
2022/03/06 07:50:12;;;;;;;26.08;9.63;;;-2.90;99.90;;;;;;4970037;28;20562;-77
2022/03/06 07:52:38;;;;;;;;;;;-2.80;99.90;;;;;;4969255;28;20030;-78
2022/03/06 07:55:06;;;;;;;20.55;6.55;;;-2.60;99.90;;;;;;4969439;28;19906;-78
2022/03/06 07:57:32;;;;;;;21.23;7.78;;;-2.50;99.90;;;;;;4969125;28;20097;-77
2022/03/06 07:59:58;;;;;;;22.38;9.32;;;-2.40;99.90;;;;;;4969039;28;20027;-78
2022/03/06 08:02:23;;;;;;;21.02;8.48;;;-2.30;99.90;;;;;;4970327;28;20513;-78
2022/03/06 08:04:49;;;;;;;23.70;9.40;;;-2.00;99.90;;;;;;4950535;28;20584;-77
2022/03/06 08:07:15;;;;;;;24.88;8.90;;;-1.80;99.90;;;;;;4950612;28;20380;-77
2022/03/06 08:09:40;;;;;;;19.33;9.02;;;-1.80;99.90;;;;;;4951055;28;20028;-78
2022/03/06 08:12:07;;;;;;;22.27;8.05;;;-1.60;99.90;;;;;;4949438;28;20032;-78
2022/03/06 08:14:32;;;;;;;17.90;7.47;;;-1.70;99.90;;;;;;4951498;28;20098;-79
2022/03/06 08:16:58;;;;;;;20.23;8.73;;;-1.20;99.90;;;;;;4949424;28;20483;-79
2022/03/06 08:19:24;;;;;;;20.88;8.10;;;-1.40;99.90;;;;;;4949802;28;20440;-78
2022/03/06 08:21:50;;;;;;;22.02;8.85;;;-1.40;99.90;;;;;;4950543;28;20046;-77
2022/03/06 08:24:16;;;;;;;21.25;9.18;;;-1.20;99.90;;;;;;4948957;28;20536;-77
2022/03/06 08:26:42;;;;;;;23.15;8.65;;;-1.10;99.90;;;;;;4977179;28;20026;-78
2022/03/06 08:29:08;;;;;;;25.75;9.75;;;-1.00;99.90;;;;;;4991922;28;20045;-80
2022/03/06 08:31:34;;;;;;;19.52;7.78;;;-1.00;99.90;;;;;;4992394;28;20041;-79
2022/03/06 08:34:00;;;;;;;26.58;8.55;;;-0.80;99.90;;;;;;4994422;28;20026;-80
2022/03/06 08:36:25;;;;;;;20.48;8.95;;;-0.80;99.90;;;;;;4989864;28;20015;-80
2022/03/06 08:38:51;;;;;;;20.45;8.32;;;-0.80;99.90;;;;;;4989104;28;20034;-79
2022/03/06 08:41:17;;;;;;;24.30;9.38;;;-0.70;99.90;;;;;;4968460;28;20027;-80
2022/03/06 08:43:43;;;;;;;21.70;8.13;;;-0.40;99.90;;;;;;4970663;28;20057;-78
2022/03/06 08:46:08;;;;;;;22.23;9.18;;;-0.40;99.90;;;;;;4966862;28;20035;-77
2022/03/06 08:48:37;;;;;;;21.58;8.50;;;-0.20;99.90;;;;;;4969223;28;20427;-81
2022/03/06 08:51:06;;;;;;;16.50;8.15;;;0.30;99.90;;;;;;4968440;28;20030;-78
2022/03/06 08:53:32;;;;;;;;;;;-0.30;99.90;;;;;;4968205;28;20050;-80
2022/03/06 08:55:58;;;;;;;16.48;7.53;;;-0.20;99.90;;;;;;4970710;28;19906;-80
2022/03/06 08:58:24;;;;;;;21.33;9.35;;;-0.10;99.90;;;;;;4968322;28;20092;-79
2022/03/06 09:00:50;;;;;;;22.90;8.07;;;0.20;99.90;;;;;;4967341;28;20125;-79
2022/03/06 09:03:16;;;;;;;19.27;7.68;;;0.10;99.90;;;;;;4967756;28;20038;-78
2022/03/06 09:05:42;;;;;;;18.25;8.20;;;0.00;99.90;;;;;;4957271;28;20038;-83
2022/03/06 09:08:11;;;;;;;29.30;12.18;;;-0.20;99.90;;;;;;4950273;28;20028;-79
2022/03/06 09:10:39;;;;;;;21.33;9.93;;;-0.20;99.90;;;;;;4949036;28;20039;-83
2022/03/06 09:13:06;;;;;;;23.20;8.55;;;-0.20;99.90;;;;;;4950272;28;20745;-82
2022/03/06 09:15:32;;;;;;;16.65;7.30;;;-0.20;99.90;;;;;;4950098;28;20542;-79
2022/03/06 09:17:58;;;;;;;18.58;8.50;;;-0.10;99.90;;;;;;4951193;28;20051;-79
2022/03/06 09:20:25;;;;;;;25.10;9.23;;;0.00;99.90;;;;;;4949901;28;20038;-81
2022/03/06 09:22:52;;;;;;;22.75;8.35;;;0.00;99.90;;;;;;4950001;28;20035;-79
2022/03/06 09:25:18;;;;;;;18.00;7.75;;;0.20;99.90;;;;;;4953006;28;20586;-80
2022/03/06 09:27:43;;;;;;;20.48;8.50;;;0.10;99.90;;;;;;4949005;28;20070;-83
2022/03/06 09:30:10;;;;;;;15.98;7.10;;;0.20;99.90;;;;;;4950293;28;20027;-80
2022/03/06 09:32:37;;;;;;;16.48;8.18;;;0.20;99.90;;;;;;4950540;28;20035;-78
2022/03/06 09:35:03;;;;;;;21.27;8.65;;;0.20;99.90;;;;;;4949644;28;20031;-79
2022/03/06 09:37:28;;;;;;;21.42;8.05;;;0.40;99.90;;;;;;4949520;28;20078;-79
2022/03/06 09:39:54;;;;;;;20.40;9.07;;;0.50;99.90;;;;;;4954841;28;20022;-81
2022/03/06 09:42:21;;;;;;;20.13;7.60;;;0.40;99.90;;;;;;4970949;28;20053;-80
2022/03/06 09:44:48;;;;;;;20.92;8.60;;;0.50;99.90;;;;;;4974163;28;20062;-78
2022/03/06 09:47:16;;;;;;;19.33;7.47;;;0.70;99.90;;;;;;4973461;28;20023;-81
2022/03/06 09:49:43;;;;;;;19.20;8.32;;;0.90;99.90;;;;;;4968503;28;20503;-78
2022/03/06 09:52:10;;;;;;;24.27;9.07;;;0.90;99.90;;;;;;4969026;28;20038;-80
2022/03/06 09:54:36;;;;;;;20.02;7.55;;;1.00;99.90;;;;;;4970279;28;20079;-83
2022/03/06 09:57:02;;;;;;;22.55;8.65;;;1.00;99.90;;;;;;4967659;28;20483;-79
2022/03/06 09:59:30;;;;;;;19.73;8.20;;;1.10;99.90;;;;;;4967352;28;20049;-81
2022/03/06 10:02:03;;;;;;;17.75;7.78;;;1.10;99.90;;;;;;4969648;28;20030;-78
2022/03/06 10:04:31;;;;;;;17.83;8.27;;;1.20;99.90;;;;;;4971737;28;20042;-79
2022/03/06 10:07:07;;;;;;;25.83;9.52;;;1.30;99.60;;;;;;4973085;28;20042;-79
2022/03/06 10:09:50;;;;;;;23.98;7.90;;;1.40;99.40;;;;;;4970568;28;20044;-78
2022/03/06 10:12:23;;;;;;;24.35;9.80;;;1.40;98.80;;;;;;4967910;28;20045;-80
2022/03/06 10:14:50;;;;;;;18.60;8.18;;;1.40;99.10;;;;;;4968745;28;20034;-79
2022/03/06 10:17:19;;;;;;;19.60;8.05;;;1.50;96.80;;;;;;4970679;28;20050;-80
2022/03/06 10:19:55;;;;;;;16.02;7.10;;;1.60;96.60;;;;;;4973737;28;20059;-79
2022/03/06 10:22:23;;;;;;;17.67;7.93;;;1.60;95.40;;;;;;4971939;28;20035;-78
2022/03/06 10:24:58;;;;;;;24.67;8.15;;;1.60;95.80;;;;;;4973628;28;20058;-79
2022/03/06 10:27:44;;;;;;;24.58;8.35;;;1.70;95.80;;;;;;4974752;28;20035;-81
2022/03/06 10:30:39;;;;;;;22.80;9.02;;;2.00;94.50;;;;;;4971853;28;20045;-79
2022/03/06 10:33:08;;;;;;;18.90;8.15;;;2.10;94.00;;;;;;4972753;28;20038;-79
2022/03/06 10:35:35;;;;;;;15.13;7.13;;;2.20;92.60;;;;;;4972491;28;20030;-82
2022/03/06 10:38:01;;;;;;;18.15;7.07;;;2.10;91.70;;;;;;4975974;28;20114;-79
2022/03/06 10:40:34;;;;;;;25.02;10.13;;;2.20;93.90;;;;;;4971141;28;20113;-79
2022/03/06 10:43:00;;;;;;;15.90;7.35;;;2.10;91.20;;;;;;4970762;28;20062;-79
2022/03/06 10:45:26;;;;;;;18.92;7.55;;;2.20;90.80;;;;;;4974160;28;20046;-79
2022/03/06 10:47:54;;;;;;;33.97;11.73;;;2.30;90.00;;;;;;4972479;28;20050;-78
2022/03/06 10:50:22;;;;;;;18.25;8.38;;;2.30;90.00;;;;;;4972006;28;20023;-79
2022/03/06 10:52:48;;;;;;;34.85;11.35;;;2.40;90.00;;;;;;4971117;28;20033;-80
2022/03/06 10:55:14;;;;;;;23.75;9.00;;;2.40;89.80;;;;;;4972742;28;20026;-78
2022/03/06 10:57:40;;;;;;;24.52;9.75;;;2.40;90.30;;;;;;4974357;28;20035;-79
2022/03/06 11:00:07;;;;;;;22.08;8.27;;;2.60;89.50;;;;;;4974314;28;20023;-79
2022/03/06 11:02:35;;;;;;;21.00;9.32;;;2.70;89.20;;;;;;4970317;28;20054;-78
2022/03/06 11:05:02;;;;;;;17.92;7.88;;;2.70;87.90;;;;;;4951123;28;20030;-79
2022/03/06 11:07:29;;;;;;;15.30;7.35;;;2.80;88.00;;;;;;4951943;28;20039;-79
2022/03/06 11:09:57;;;;;;;17.45;8.02;;;2.80;87.30;;;;;;4952454;28;20085;-79
2022/03/06 11:12:26;;;;;;;18.70;8.38;;;2.80;86.40;;;;;;4953507;28;20047;-79
2022/03/06 11:14:52;;;;;;;;;;;2.60;86.70;;;;;;4954571;28;20365;-78
2022/03/06 11:17:17;;;;;;;15.38;6.80;;;2.80;86.60;;;;;;4953093;28;20005;-80
2022/03/06 11:19:43;;;;;;;16.17;7.55;;;3.10;86.30;;;;;;4951630;28;20019;-80
2022/03/06 11:22:24;;;;;;;20.55;9.15;;;3.10;85.80;;;;;;4953144;28;20115;-79
2022/03/06 11:25:07;;;;;;;17.00;6.53;;;3.20;84.40;;;;;;4952024;28;20491;-79
2022/03/06 11:28:01;;;;;;;20.83;8.20;;;3.20;82.80;;;;;;4953021;28;20031;-80
2022/03/06 11:30:27;;;;;;;17.83;7.35;;;3.00;83.10;;;;;;4949508;28;20047;-79
2022/03/06 11:33:06;;;;;;;19.30;8.27;;;3.20;84.50;;;;;;4951734;28;20042;-79
2022/03/06 11:35:37;;;;;;;17.58;6.55;;;3.40;84.50;;;;;;4951154;28;20035;-79
2022/03/06 11:38:04;;;;;;;21.00;7.95;;;3.40;82.80;;;;;;4952778;28;20035;-79
2022/03/06 11:40:52;;;;;;;22.58;8.00;;;3.50;82.70;;;;;;4950909;28;20031;-79
2022/03/06 11:43:30;;;;;;;18.17;7.93;;;3.60;82.60;;;;;;4949868;28;20069;-84
2022/03/06 11:46:02;;;;;;;18.17;7.97;;;3.50;82.60;;;;;;4950309;28;20027;-79
2022/03/06 11:48:33;;;;;;;23.88;9.02;;;3.60;83.20;;;;;;4953216;28;20049;-80
2022/03/06 11:51:14;;;;;;;15.52;7.78;;;3.60;81.10;;;;;;4951815;28;20530;-79
2022/03/06 11:53:54;;;;;;;17.30;7.85;;;3.70;81.80;;;;;;4952167;28;20062;-79
2022/03/06 11:56:34;;;;;;;17.40;8.80;;;3.90;80.90;;;;;;4952248;28;20042;-79
2022/03/06 11:59:11;;;;;;;19.60;6.82;;;3.80;81.30;;;;;;4950280;28;20035;-80
2022/03/06 12:01:48;;;;;;;19.35;7.97;;;3.90;81.70;;;;;;4950321;28;20038;-80
2022/03/06 12:04:15;;;;;;;20.67;8.57;;;3.80;81.80;;;;;;4965968;28;20030;-79
2022/03/06 12:06:47;;;;;;;16.88;7.47;;;3.90;81.20;;;;;;4968634;28;20518;-79
2022/03/06 12:09:16;;;;;;;15.93;7.18;;;3.80;79.20;;;;;;4968851;28;20444;-78
2022/03/06 12:11:44;;;;;;;18.92;7.53;;;3.90;81.50;;;;;;4968841;28;20173;-78
2022/03/06 12:14:16;;;;;;;22.35;7.88;;;4.00;80.50;;;;;;4969628;28;20333;-79
2022/03/06 12:17:04;;;;;;;18.98;7.45;;;4.00;80.10;;;;;;4970204;28;20101;-79
2022/03/06 12:19:32;;;;;;;20.85;8.23;;;4.00;79.90;;;;;;4970135;28;20035;-80
2022/03/06 12:22:20;;;;;;;17.25;8.13;;;4.10;79.20;;;;;;4970416;28;20034;-81
2022/03/06 12:24:48;;;;;;;17.75;8.00;;;4.30;77.60;;;;;;4970597;28;20062;-79
2022/03/06 12:27:16;;;;;;;19.35;8.75;;;4.60;79.00;;;;;;4990312;28;20088;-80
2022/03/06 12:29:54;;;;;;;18.52;8.48;;;4.80;76.20;;;;;;4989347;28;20530;-80
2022/03/06 12:32:26;;;;;;;20.63;8.02;;;5.20;75.40;;;;;;5014591;28;20066;-80
2022/03/06 12:35:00;;;;;;;15.43;6.53;;;5.80;72.20;;;;;;5007255;28;20058;-80
2022/03/06 12:37:33;;;;;;;19.63;8.02;;;7.70;70.50;;;;;;5011097;28;20027;-80
2022/03/06 12:40:01;;;;;;;18.05;8.00;;;7.10;67.50;;;;;;5011658;28;20032;-79
2022/03/06 12:42:42;;;;;;;17.92;7.85;;;7.10;67.10;;;;;;5004338;28;20056;-83